sensor_id;sensor_type;location;lat;lon;timestamp;temperature;humidity
43227;DHT22;28839;52.404;9.808;2022-12-29T00:03:53;9.20;99.90
43227;DHT22;28839;52.404;9.808;2022-12-29T00:10:47;9.20;99.90
43227;DHT22;28839;52.404;9.808;2022-12-29T00:17:40;9.30;99.90
43227;DHT22;28839;52.404;9.808;2022-12-29T00:24:36;9.30;99.90
43227;DHT22;28839;52.404;9.808;2022-12-29T00:31:47;9.20;99.90
43227;DHT22;28839;52.404;9.808;2022-12-29T00:39:00;9.50;99.90
43227;DHT22;28839;52.404;9.808;2022-12-29T00:46:13;9.70;99.90
43227;DHT22;28839;52.404;9.808;2022-12-29T00:53:07;9.70;99.90
43227;DHT22;28839;52.404;9.808;2022-12-29T01:00:01;9.70;99.90
43227;DHT22;28839;52.404;9.808;2022-12-29T01:06:57;9.80;99.90
43227;DHT22;28839;52.404;9.808;2022-12-29T01:13:51;9.70;99.90
43227;DHT22;28839;52.404;9.808;2022-12-29T01:20:45;9.90;99.90
43227;DHT22;28839;52.404;9.808;2022-12-29T01:27:40;9.90;99.90
43227;DHT22;28839;52.404;9.808;2022-12-29T01:34:34;9.80;99.90
43227;DHT22;28839;52.404;9.808;2022-12-29T01:41:28;9.80;99.90
43227;DHT22;28839;52.404;9.808;2022-12-29T01:48:23;9.80;99.90
43227;DHT22;28839;52.404;9.808;2022-12-29T01:55:18;9.80;99.90
43227;DHT22;28839;52.404;9.808;2022-12-29T02:02:12;9.80;99.90
43227;DHT22;28839;52.404;9.808;2022-12-29T02:09:07;9.80;99.90
43227;DHT22;28839;52.404;9.808;2022-12-29T02:16:10;9.70;99.90
43227;DHT22;28839;52.404;9.808;2022-12-29T02:23:32;9.80;99.90
43227;DHT22;28839;52.404;9.808;2022-12-29T02:30:45;9.80;99.90
43227;DHT22;28839;52.404;9.808;2022-12-29T02:37:43;9.80;99.90
43227;DHT22;28839;52.404;9.808;2022-12-29T02:44:50;9.80;99.90
43227;DHT22;28839;52.404;9.808;2022-12-29T02:51:51;10.00;99.90
43227;DHT22;28839;52.404;9.808;2022-12-29T02:58:47;10.20;99.90
43227;DHT22;28839;52.404;9.808;2022-12-29T03:06:03;10.20;99.90
43227;DHT22;28839;52.404;9.808;2022-12-29T03:13:11;10.30;99.90
43227;DHT22;28839;52.404;9.808;2022-12-29T03:20:27;10.20;99.90
43227;DHT22;28839;52.404;9.808;2022-12-29T03:27:29;10.20;99.90
43227;DHT22;28839;52.404;9.808;2022-12-29T03:34:25;10.20;99.90
43227;DHT22;28839;52.404;9.808;2022-12-29T03:41:23;10.30;99.90
43227;DHT22;28839;52.404;9.808;2022-12-29T03:48:19;10.40;99.90
43227;DHT22;28839;52.404;9.808;2022-12-29T03:55:14;10.50;99.90
43227;DHT22;28839;52.404;9.808;2022-12-29T04:02:08;10.50;99.90
43227;DHT22;28839;52.404;9.808;2022-12-29T04:09:02;10.60;99.90
43227;DHT22;28839;52.404;9.808;2022-12-29T04:15:57;10.60;99.90
43227;DHT22;28839;52.404;9.808;2022-12-29T04:22:58;10.80;99.90
43227;DHT22;28839;52.404;9.808;2022-12-29T04:29:52;10.70;99.90
43227;DHT22;28839;52.404;9.808;2022-12-29T04:36:47;11.00;99.90
43227;DHT22;28839;52.404;9.808;2022-12-29T04:43:41;11.00;99.90
43227;DHT22;28839;52.404;9.808;2022-12-29T04:50:35;11.20;99.90
43227;DHT22;28839;52.404;9.808;2022-12-29T04:57:30;11.10;99.90
43227;DHT22;28839;52.404;9.808;2022-12-29T05:04:24;11.20;99.90
43227;DHT22;28839;52.404;9.808;2022-12-29T05:11:18;11.30;99.90
43227;DHT22;28839;52.404;9.808;2022-12-29T05:18:13;11.40;99.90
43227;DHT22;28839;52.404;9.808;2022-12-29T05:25:08;11.30;99.90
43227;DHT22;28839;52.404;9.808;2022-12-29T05:32:02;11.30;99.90
43227;DHT22;28839;52.404;9.808;2022-12-29T05:38:58;11.30;99.90
43227;DHT22;28839;52.404;9.808;2022-12-29T05:45:52;11.20;99.90
43227;DHT22;28839;52.404;9.808;2022-12-29T05:52:46;11.20;99.90
43227;DHT22;28839;52.404;9.808;2022-12-29T05:59:41;11.30;99.90
43227;DHT22;28839;52.404;9.808;2022-12-29T06:06:35;11.00;99.90
43227;DHT22;28839;52.404;9.808;2022-12-29T06:13:29;10.90;99.90
43227;DHT22;28839;52.404;9.808;2022-12-29T06:20:24;10.90;99.90
43227;DHT22;28839;52.404;9.808;2022-12-29T06:27:21;10.70;99.90
43227;DHT22;28839;52.404;9.808;2022-12-29T06:34:15;10.50;99.90
43227;DHT22;28839;52.404;9.808;2022-12-29T06:41:10;10.50;99.90
43227;DHT22;28839;52.404;9.808;2022-12-29T06:48:04;10.40;99.90
43227;DHT22;28839;52.404;9.808;2022-12-29T06:54:58;10.50;99.90
43227;DHT22;28839;52.404;9.808;2022-12-29T07:01:53;10.40;99.90
43227;DHT22;28839;52.404;9.808;2022-12-29T07:08:47;10.50;99.90
43227;DHT22;28839;52.404;9.808;2022-12-29T07:15:41;10.70;99.90
43227;DHT22;28839;52.404;9.808;2022-12-29T07:22:36;10.90;99.90
43227;DHT22;28839;52.404;9.808;2022-12-29T07:29:31;11.10;99.90
43227;DHT22;28839;52.404;9.808;2022-12-29T07:36:25;9.40;99.90
43227;DHT22;28839;52.404;9.808;2022-12-29T07:43:20;9.20;99.90
43227;DHT22;28839;52.404;9.808;2022-12-29T07:50:14;9.20;99.90
43227;DHT22;28839;52.404;9.808;2022-12-29T07:57:08;9.30;99.90
43227;DHT22;28839;52.404;9.808;2022-12-29T08:04:04;9.30;99.90
43227;DHT22;28839;52.404;9.808;2022-12-29T08:10:58;9.30;99.90
43227;DHT22;28839;52.404;9.808;2022-12-29T08:17:52;9.30;99.90
43227;DHT22;28839;52.404;9.808;2022-12-29T08:24:48;9.40;99.90
43227;DHT22;28839;52.404;9.808;2022-12-29T08:31:42;9.30;99.90
43227;DHT22;28839;52.404;9.808;2022-12-29T08:38:35;9.60;99.90
43227;DHT22;28839;52.404;9.808;2022-12-29T08:45:31;9.70;99.90
43227;DHT22;28839;52.404;9.808;2022-12-29T08:52:25;9.70;99.90
43227;DHT22;28839;52.404;9.808;2022-12-29T08:59:19;9.70;99.90
43227;DHT22;28839;52.404;9.808;2022-12-29T09:06:16;10.00;99.90
43227;DHT22;28839;52.404;9.808;2022-12-29T09:13:10;9.80;99.90
43227;DHT22;28839;52.404;9.808;2022-12-29T09:20:05;9.80;99.90
43227;DHT22;28839;52.404;9.808;2022-12-29T09:27:00;9.80;99.90
43227;DHT22;28839;52.404;9.808;2022-12-29T09:33:54;9.80;99.90
43227;DHT22;28839;52.404;9.808;2022-12-29T09:40:50;9.80;99.90
43227;DHT22;28839;52.404;9.808;2022-12-29T09:47:46;9.90;99.90
43227;DHT22;28839;52.404;9.808;2022-12-29T09:54:49;9.90;99.90
43227;DHT22;28839;52.404;9.808;2022-12-29T10:01:51;10.00;99.90
43227;DHT22;28839;52.404;9.808;2022-12-29T10:08:52;10.10;99.90
43227;DHT22;28839;52.404;9.808;2022-12-29T10:15:57;10.20;99.90
43227;DHT22;28839;52.404;9.808;2022-12-29T10:23:17;10.00;99.90
43227;DHT22;28839;52.404;9.808;2022-12-29T10:30:15;10.10;99.90
43227;DHT22;28839;52.404;9.808;2022-12-29T10:37:21;10.10;99.90
43227;DHT22;28839;52.404;9.808;2022-12-29T10:44:18;10.40;99.90
43227;DHT22;28839;52.404;9.808;2022-12-29T10:51:20;10.60;99.90
43227;DHT22;28839;52.404;9.808;2022-12-29T10:58:15;10.80;99.90
43227;DHT22;28839;52.404;9.808;2022-12-29T11:05:15;10.80;99.90
43227;DHT22;28839;52.404;9.808;2022-12-29T11:12:23;10.80;99.90
43227;DHT22;28839;52.404;9.808;2022-12-29T11:19:21;10.70;99.90
43227;DHT22;28839;52.404;9.808;2022-12-29T11:26:19;10.70;99.90
43227;DHT22;28839;52.404;9.808;2022-12-29T11:33:17;11.00;99.90
43227;DHT22;28839;52.404;9.808;2022-12-29T11:40:18;11.10;99.90
43227;DHT22;28839;52.404;9.808;2022-12-29T11:47:21;11.00;99.90
43227;DHT22;28839;52.404;9.808;2022-12-29T11:54:21;11.00;99.90
43227;DHT22;28839;52.404;9.808;2022-12-29T12:01:18;11.20;99.90
43227;DHT22;28839;52.404;9.808;2022-12-29T12:08:17;11.30;99.90
43227;DHT22;28839;52.404;9.808;2022-12-29T12:15:19;11.30;99.90
43227;DHT22;28839;52.404;9.808;2022-12-29T12:22:19;11.40;99.90
43227;DHT22;28839;52.404;9.808;2022-12-29T12:29:20;11.50;99.90
43227;DHT22;28839;52.404;9.808;2022-12-29T12:36:43;11.50;99.90
43227;DHT22;28839;52.404;9.808;2022-12-29T12:43:45;11.40;99.90
43227;DHT22;28839;52.404;9.808;2022-12-29T12:50:51;11.30;99.90
43227;DHT22;28839;52.404;9.808;2022-12-29T12:57:53;11.30;99.90
43227;DHT22;28839;52.404;9.808;2022-12-29T13:12:17;11.20;99.90
43227;DHT22;28839;52.404;9.808;2022-12-29T13:19:21;11.30;99.90
43227;DHT22;28839;52.404;9.808;2022-12-29T13:26:21;11.20;99.90
43227;DHT22;28839;52.404;9.808;2022-12-29T13:33:23;11.30;99.90
43227;DHT22;28839;52.404;9.808;2022-12-29T13:40:24;11.50;99.90
43227;DHT22;28839;52.404;9.808;2022-12-29T13:47:24;11.40;99.90
43227;DHT22;28839;52.404;9.808;2022-12-29T13:54:30;11.40;99.90
43227;DHT22;28839;52.404;9.808;2022-12-29T14:01:32;11.40;99.90
43227;DHT22;28839;52.404;9.808;2022-12-29T14:08:28;11.40;99.90
43227;DHT22;28839;52.404;9.808;2022-12-29T14:15:23;11.30;99.90
43227;DHT22;28839;52.404;9.808;2022-12-29T14:22:25;11.30;99.90
43227;DHT22;28839;52.404;9.808;2022-12-29T14:29:44;11.20;99.90
43227;DHT22;28839;52.404;9.808;2022-12-29T14:36:40;11.20;99.90
43227;DHT22;28839;52.404;9.808;2022-12-29T14:43:35;11.20;99.90
43227;DHT22;28839;52.404;9.808;2022-12-29T14:50:37;11.10;99.90
43227;DHT22;28839;52.404;9.808;2022-12-29T14:57:35;11.10;99.90
43227;DHT22;28839;52.404;9.808;2022-12-29T15:04:33;11.10;99.90
43227;DHT22;28839;52.404;9.808;2022-12-29T15:11:43;11.00;99.90
43227;DHT22;28839;52.404;9.808;2022-12-29T15:18:41;10.90;99.90
43227;DHT22;28839;52.404;9.808;2022-12-29T15:25:53;11.00;99.90
43227;DHT22;28839;52.404;9.808;2022-12-29T15:32:48;10.90;99.90
43227;DHT22;28839;52.404;9.808;2022-12-29T15:39:42;10.80;99.90
43227;DHT22;28839;52.404;9.808;2022-12-29T15:46:38;10.70;99.90
43227;DHT22;28839;52.404;9.808;2022-12-29T15:53:32;10.70;99.90
43227;DHT22;28839;52.404;9.808;2022-12-29T16:00:28;10.50;99.90
43227;DHT22;28839;52.404;9.808;2022-12-29T16:07:26;10.50;99.90
43227;DHT22;28839;52.404;9.808;2022-12-29T16:14:27;10.40;99.90
43227;DHT22;28839;52.404;9.808;2022-12-29T16:21:25;10.30;99.90
43227;DHT22;28839;52.404;9.808;2022-12-29T16:28:23;10.30;99.90
43227;DHT22;28839;52.404;9.808;2022-12-29T16:35:19;10.10;99.90
43227;DHT22;28839;52.404;9.808;2022-12-29T16:42:33;10.10;99.90
43227;DHT22;28839;52.404;9.808;2022-12-29T16:49:29;10.00;99.90
43227;DHT22;28839;52.404;9.808;2022-12-29T16:56:26;9.90;99.90
43227;DHT22;28839;52.404;9.808;2022-12-29T17:03:21;9.60;99.90
43227;DHT22;28839;52.404;9.808;2022-12-29T17:10:17;9.70;99.90
43227;DHT22;28839;52.404;9.808;2022-12-29T17:17:18;9.70;99.90
43227;DHT22;28839;52.404;9.808;2022-12-29T17:24:16;9.70;99.90
43227;DHT22;28839;52.404;9.808;2022-12-29T17:31:13;9.80;99.90
43227;DHT22;28839;52.404;9.808;2022-12-29T17:38:16;9.80;99.90
43227;DHT22;28839;52.404;9.808;2022-12-29T17:45:15;10.00;99.90
43227;DHT22;28839;52.404;9.808;2022-12-29T17:52:11;10.00;99.90
43227;DHT22;28839;52.404;9.808;2022-12-29T17:59:11;10.00;99.90
43227;DHT22;28839;52.404;9.808;2022-12-29T18:06:07;9.90;99.90
43227;DHT22;28839;52.404;9.808;2022-12-29T18:13:02;9.80;99.90
43227;DHT22;28839;52.404;9.808;2022-12-29T18:19:56;9.80;99.90
43227;DHT22;28839;52.404;9.808;2022-12-29T18:26:50;9.60;99.90
43227;DHT22;28839;52.404;9.808;2022-12-29T18:33:45;9.70;99.90
43227;DHT22;28839;52.404;9.808;2022-12-29T18:40:39;8.90;99.90
43227;DHT22;28839;52.404;9.808;2022-12-29T18:47:33;8.20;99.90
43227;DHT22;28839;52.404;9.808;2022-12-29T18:54:30;8.00;99.90
43227;DHT22;28839;52.404;9.808;2022-12-29T19:01:25;7.90;99.90
43227;DHT22;28839;52.404;9.808;2022-12-29T19:08:19;8.00;99.90
43227;DHT22;28839;52.404;9.808;2022-12-29T19:15:20;8.00;99.90
43227;DHT22;28839;52.404;9.808;2022-12-29T19:22:15;8.10;99.90
43227;DHT22;28839;52.404;9.808;2022-12-29T19:29:13;8.10;99.90
43227;DHT22;28839;52.404;9.808;2022-12-29T19:36:10;8.20;99.90
43227;DHT22;28839;52.404;9.808;2022-12-29T19:43:05;8.30;99.90
43227;DHT22;28839;52.404;9.808;2022-12-29T19:49:59;8.50;99.90
43227;DHT22;28839;52.404;9.808;2022-12-29T19:56:54;8.60;99.90
43227;DHT22;28839;52.404;9.808;2022-12-29T20:03:49;8.90;99.90
43227;DHT22;28839;52.404;9.808;2022-12-29T20:10:43;8.90;99.90
43227;DHT22;28839;52.404;9.808;2022-12-29T20:17:39;8.80;99.90
43227;DHT22;28839;52.404;9.808;2022-12-29T20:24:34;8.80;99.90
43227;DHT22;28839;52.404;9.808;2022-12-29T20:31:30;8.70;99.90
43227;DHT22;28839;52.404;9.808;2022-12-29T20:38:25;8.80;99.90
43227;DHT22;28839;52.404;9.808;2022-12-29T20:45:19;8.80;99.90
43227;DHT22;28839;52.404;9.808;2022-12-29T20:52:13;8.60;99.90
43227;DHT22;28839;52.404;9.808;2022-12-29T20:59:08;8.60;99.90
43227;DHT22;28839;52.404;9.808;2022-12-29T21:06:02;8.40;99.90
43227;DHT22;28839;52.404;9.808;2022-12-29T21:12:56;8.40;99.90
43227;DHT22;28839;52.404;9.808;2022-12-29T21:19:51;8.40;99.90
43227;DHT22;28839;52.404;9.808;2022-12-29T21:26:45;8.40;99.90
43227;DHT22;28839;52.404;9.808;2022-12-29T21:33:40;8.30;99.90
43227;DHT22;28839;52.404;9.808;2022-12-29T21:40:37;8.30;99.90
43227;DHT22;28839;52.404;9.808;2022-12-29T21:47:32;8.30;99.90
43227;DHT22;28839;52.404;9.808;2022-12-29T21:54:53;8.30;99.90
43227;DHT22;28839;52.404;9.808;2022-12-29T22:01:54;8.30;99.90
43227;DHT22;28839;52.404;9.808;2022-12-29T22:09:05;8.40;99.90
43227;DHT22;28839;52.404;9.808;2022-12-29T22:16:16;8.30;99.90
43227;DHT22;28839;52.404;9.808;2022-12-29T22:23:12;8.30;99.90
43227;DHT22;28839;52.404;9.808;2022-12-29T22:30:07;8.30;99.90
43227;DHT22;28839;52.404;9.808;2022-12-29T22:37:01;8.20;99.90
43227;DHT22;28839;52.404;9.808;2022-12-29T22:43:56;8.20;99.90
43227;DHT22;28839;52.404;9.808;2022-12-29T22:50:53;8.20;99.90
43227;DHT22;28839;52.404;9.808;2022-12-29T22:57:49;8.20;99.90
43227;DHT22;28839;52.404;9.808;2022-12-29T23:04:44;8.30;99.90
43227;DHT22;28839;52.404;9.808;2022-12-29T23:11:38;8.20;99.90
43227;DHT22;28839;52.404;9.808;2022-12-29T23:18:32;8.20;99.90
43227;DHT22;28839;52.404;9.808;2022-12-29T23:25:27;8.20;99.90
43227;DHT22;28839;52.404;9.808;2022-12-29T23:32:21;8.20;99.90
43227;DHT22;28839;52.404;9.808;2022-12-29T23:39:18;8.20;99.90
43227;DHT22;28839;52.404;9.808;2022-12-29T23:46:15;8.20;99.90
43227;DHT22;28839;52.404;9.808;2022-12-29T23:53:11;8.20;99.90
